Time;durP1;ratioP1;P1;durP2;ratioP2;P2;SDS_P1;SDS_P2;PMS_P1;PMS_P2;Temp;Humidity;BMP_temperature;BMP_pressure;BME280_temperature;BME280_humidity;BME280_pressure;Samples;Min_cycle;Max_cycle;Signal;HPM_P1;HPM_P2
2023/02/01 00:02:02;;;;;;;7.60;0.73;;;4.90;99.90;;;;;;4939925;29;20693;-86
2023/02/01 00:04:28;;;;;;;10.87;1.10;;;4.80;99.90;;;;;;4957201;29;20177;-86
2023/02/01 00:06:54;;;;;;;7.03;1.83;;;4.70;99.90;;;;;;4939952;29;20189;-85
2023/02/01 00:09:20;;;;;;;5.80;0.77;;;4.60;99.90;;;;;;4957416;29;20188;-87
2023/02/01 00:11:45;;;;;;;13.13;2.40;;;4.60;99.90;;;;;;4957366;29;20179;-85
2023/02/01 00:14:11;;;;;;;9.00;1.37;;;4.70;99.90;;;;;;4957105;29;20185;-87
2023/02/01 00:16:36;;;;;;;10.67;3.20;;;4.80;99.90;;;;;;4957001;29;20259;-86
2023/02/01 00:19:07;;;;;;;11.77;2.00;;;4.90;99.90;;;;;;4940026;29;20180;-86
2023/02/01 00:21:33;;;;;;;15.60;2.10;;;5.00;99.90;;;;;;4956415;29;20179;-83
2023/02/01 00:24:03;;;;;;;19.67;2.50;;;5.00;99.90;;;;;;4957947;29;20839;-84
2023/02/01 00:26:40;;;;;;;17.03;3.03;;;5.00;99.90;;;;;;4961946;29;20188;-85
2023/02/01 00:29:10;;;;;;;8.40;1.07;;;5.00;99.90;;;;;;4977140;29;20445;-88
2023/02/01 00:31:35;;;;;;;9.90;2.40;;;5.00;99.90;;;;;;4941847;29;20417;-89
2023/02/01 00:34:01;;;;;;;15.53;3.70;;;5.10;99.90;;;;;;4940114;29;20907;-89
2023/02/01 00:36:27;;;;;;;12.50;2.17;;;5.20;99.90;;;;;;4940173;29;20217;-87
2023/02/01 00:38:53;;;;;;;9.30;1.23;;;5.20;99.90;;;;;;4939814;29;20682;-87
2023/02/01 00:41:20;;;;;;;9.57;2.33;;;5.20;99.90;;;;;;4957450;29;20521;-90
2023/02/01 00:43:46;;;;;;;13.63;1.60;;;5.30;99.90;;;;;;4956907;29;20182;-88
2023/02/01 00:46:13;;;;;;;17.73;4.53;;;5.30;99.90;;;;;;4957268;29;20422;-89
2023/02/01 00:48:39;;;;;;;16.97;2.23;;;5.30;99.90;;;;;;4957779;29;20460;-87
2023/02/01 00:51:08;;;;;;;7.40;2.00;;;5.40;99.90;;;;;;4957053;29;20435;-89
2023/02/01 00:53:37;;;;;;;12.87;2.50;;;5.40;99.90;;;;;;4957123;29;20433;-85
2023/02/01 00:56:03;;;;;;;12.03;2.43;;;5.40;99.90;;;;;;4958009;29;20962;-89
2023/02/01 00:58:28;;;;;;;16.73;3.43;;;5.50;99.90;;;;;;4956286;29;20435;-85
2023/02/01 01:01:06;;;;;;;7.50;1.60;;;5.50;99.90;;;;;;4955925;29;20692;-86
2023/02/01 01:03:33;;;;;;;10.23;2.83;;;5.50;99.90;;;;;;4917202;28;20731;-85
2023/02/01 01:06:00;;;;;;;13.53;2.03;;;5.50;99.90;;;;;;4956676;29;20430;-89
2023/02/01 01:08:26;;;;;;;9.13;1.90;;;5.50;99.90;;;;;;4956534;28;20567;-88
2023/02/01 01:10:51;;;;;;;14.27;2.73;;;5.50;99.90;;;;;;4956408;28;20493;-88
2023/02/01 01:13:17;;;;;;;20.47;2.80;;;5.50;99.90;;;;;;4955794;28;20183;-89
2023/02/01 01:15:42;;;;;;;14.47;2.17;;;5.50;99.90;;;;;;4956149;29;20197;-89
2023/02/01 01:18:08;;;;;;;20.43;2.33;;;5.50;99.90;;;;;;4956184;28;20185;-89
2023/02/01 01:20:36;;;;;;;12.47;1.77;;;5.60;99.90;;;;;;4956263;29;20235;-88
2023/02/01 01:23:02;;;;;;;17.63;2.20;;;5.70;99.90;;;;;;4956501;29;20431;-88
2023/02/01 01:25:27;;;;;;;8.93;1.83;;;5.70;99.90;;;;;;4956378;29;20407;-86
2023/02/01 01:27:53;;;;;;;23.97;3.57;;;5.70;99.90;;;;;;4956257;29;20180;-89
2023/02/01 01:30:18;;;;;;;12.30;1.80;;;5.70;99.90;;;;;;4955893;29;20275;-88
2023/02/01 01:32:44;;;;;;;17.90;2.80;;;5.70;99.90;;;;;;4956346;29;20185;-87
2023/02/01 01:35:10;;;;;;;13.87;3.33;;;5.70;99.90;;;;;;4954904;29;20272;-87
2023/02/01 01:37:35;;;;;;;18.23;2.10;;;5.70;99.90;;;;;;4955649;29;20209;-86
2023/02/01 01:40:01;;;;;;;15.73;2.83;;;5.70;99.90;;;;;;4955425;29;20418;-88
2023/02/01 01:42:27;;;;;;;10.40;2.23;;;5.70;99.90;;;;;;4955460;29;20262;-86
2023/02/01 01:45:10;;;;;;;14.00;2.27;;;5.80;99.90;;;;;;4955134;29;20498;-88
2023/02/01 01:47:42;;;;;;;8.27;2.43;;;5.70;99.90;;;;;;4954352;29;20173;-88
2023/02/01 01:50:12;;;;;;;13.97;2.53;;;5.70;99.90;;;;;;4955684;29;20434;-87
2023/02/01 01:52:43;;;;;;;22.10;3.03;;;5.70;99.90;;;;;;4955570;28;20508;-87
2023/02/01 01:55:09;;;;;;;18.63;3.90;;;5.70;99.90;;;;;;4953225;29;20492;-88
2023/02/01 01:57:39;;;;;;;14.47;3.00;;;5.80;99.90;;;;;;4955593;28;20495;-88
2023/02/01 02:00:10;;;;;;;12.50;2.70;;;5.80;99.90;;;;;;4955127;29;20449;-88
2023/02/01 02:02:41;;;;;;;13.93;3.63;;;5.80;99.90;;;;;;4955167;29;20438;-89
2023/02/01 02:05:14;;;;;;;18.90;3.63;;;5.80;99.90;;;;;;4954328;29;20432;-88
2023/02/01 02:07:44;;;;;;;13.27;2.93;;;5.80;99.90;;;;;;4938081;29;20998;-88
2023/02/01 02:10:12;;;;;;;17.83;3.00;;;5.70;99.90;;;;;;4955178;29;20428;-85
2023/02/01 02:12:40;;;;;;;13.43;1.80;;;5.70;99.90;;;;;;4954274;28;20819;-88
2023/02/01 02:15:11;;;;;;;15.70;3.60;;;5.70;99.90;;;;;;4953862;28;20425;-89
2023/02/01 02:17:54;;;;;;;13.50;1.23;;;5.60;99.90;;;;;;4954416;29;20477;-89
2023/02/01 02:20:44;;;;;;;17.70;3.40;;;5.70;99.90;;;;;;4954347;29;20437;-89
2023/02/01 02:23:35;;;;;;;14.23;2.70;;;5.70;99.90;;;;;;4954856;29;20421;-84
2023/02/01 02:26:20;;;;;;;17.27;3.27;;;5.70;99.90;;;;;;4958949;29;20413;-88
2023/02/01 02:29:15;;;;;;;11.23;1.80;;;5.70;99.90;;;;;;4957947;29;20437;-87
2023/02/01 02:31:58;;;;;;;8.80;2.63;;;5.70;99.90;;;;;;4924991;29;20426;-86
2023/02/01 02:34:41;;;;;;;15.93;2.40;;;5.60;99.90;;;;;;4959326;29;20509;-88
2023/02/01 02:37:15;;;;;;;21.43;2.00;;;5.50;99.90;;;;;;4959257;29;20551;-85
2023/02/01 02:40:03;;;;;;;12.67;2.10;;;5.50;99.90;;;;;;4937905;28;20495;-87
2023/02/01 02:49:09;;;;;;;8.00;1.80;;;5.40;99.90;;;;;;4978998;28;20395;-86
2023/02/01 02:54:50;;;;;;;18.87;3.10;;;5.40;99.90;;;;;;4978785;28;20442;-88
2023/02/01 03:05:44;;;;;;;12.30;2.20;;;5.40;99.90;;;;;;4978513;28;20509;-89
2023/02/01 03:08:13;;;;;;;11.87;1.70;;;5.40;99.90;;;;;;4977962;28;20432;-87
2023/02/01 03:10:59;;;;;;;10.43;2.20;;;5.30;99.90;;;;;;4978142;28;20414;-89
2023/02/01 03:13:42;;;;;;;17.67;3.20;;;5.40;99.90;;;;;;4977676;28;20415;-89
2023/02/01 03:16:17;;;;;;;13.43;1.90;;;5.40;99.90;;;;;;4977889;28;20468;-87
2023/02/01 03:19:05;;;;;;;15.63;2.47;;;5.30;99.90;;;;;;4978010;28;20468;-89
2023/02/01 03:21:40;;;;;;;13.67;2.13;;;5.40;99.90;;;;;;4978035;28;20507;-88
2023/02/01 03:24:17;;;;;;;12.47;2.70;;;5.40;99.90;;;;;;4977784;28;20391;-87
2023/02/01 03:26:51;;;;;;;14.90;2.60;;;5.40;99.90;;;;;;4977644;28;20404;-88
2023/02/01 03:29:21;;;;;;;12.10;1.87;;;5.40;99.90;;;;;;4977447;28;20404;-88
2023/02/01 03:31:47;;;;;;;15.37;1.90;;;5.30;99.90;;;;;;4960688;28;20779;-90
2023/02/01 03:34:16;;;;;;;9.17;1.67;;;5.30;99.90;;;;;;4960675;28;20432;-88
2023/02/01 03:36:49;;;;;;;14.57;3.23;;;5.30;99.90;;;;;;4977366;28;20267;-91
2023/02/01 03:39:41;;;;;;;19.17;2.40;;;5.20;99.90;;;;;;4960654;28;20468;-90
2023/02/01 03:42:16;;;;;;;10.97;2.90;;;5.10;99.90;;;;;;4977862;28;20429;-88
2023/02/01 03:44:57;;;;;;;7.27;1.00;;;5.00;99.90;;;;;;4976985;28;20400;-87
2023/02/01 03:47:26;;;;;;;14.23;0.87;;;5.00;99.90;;;;;;4960131;28;20413;-89
2023/02/01 03:49:52;;;;;;;4.47;0.80;;;4.80;99.90;;;;;;4960463;28;20958;-88
2023/02/01 03:52:23;;;;;;;1.70;0.40;;;4.70;99.90;;;;;;4980384;28;20434;-88
2023/02/01 03:54:50;;;;;;;1.90;0.53;;;4.50;99.90;;;;;;4977748;28;20629;-89
2023/02/01 03:57:32;;;;;;;2.70;0.40;;;4.50;99.90;;;;;;4959836;28;20477;-89
2023/02/01 04:00:15;;;;;;;2.03;0.40;;;4.40;99.90;;;;;;4976710;28;20796;-89
2023/02/01 04:02:40;;;;;;;2.00;0.30;;;4.40;99.90;;;;;;4976990;28;20415;-87
2023/02/01 04:05:06;;;;;;;1.13;0.40;;;4.40;99.90;;;;;;4975526;28;20951;-87
2023/02/01 04:07:31;;;;;;;1.47;0.83;;;4.50;99.90;;;;;;4976605;28;20172;-86
2023/02/01 04:09:57;;;;;;;8.47;1.20;;;4.60;99.90;;;;;;4927645;28;20850;-81
2023/02/01 04:12:23;;;;;;;7.97;1.10;;;4.60;99.90;;;;;;4946093;28;20557;-88
2023/02/01 04:14:48;;;;;;;6.70;1.47;;;4.60;99.90;;;;;;4957116;29;20205;-88
2023/02/01 04:17:14;;;;;;;6.00;1.27;;;4.70;99.90;;;;;;4957069;29;20226;-86
2023/02/01 04:19:39;;;;;;;12.00;1.30;;;4.70;99.90;;;;;;4957331;29;20259;-86
2023/02/01 04:22:04;;;;;;;1.57;0.50;;;4.70;99.90;;;;;;4957441;29;20273;-89
2023/02/01 04:24:30;;;;;;;9.97;1.80;;;4.80;99.90;;;;;;4957401;28;20165;-88
2023/02/01 04:26:58;;;;;;;6.73;0.97;;;4.80;99.90;;;;;;4957529;28;20177;-88
2023/02/01 04:29:24;;;;;;;9.23;0.97;;;4.80;99.90;;;;;;4957045;28;20169;-86
2023/02/01 04:31:49;;;;;;;7.80;1.77;;;4.80;99.90;;;;;;4940006;29;20443;-87
2023/02/01 04:34:18;;;;;;;5.10;0.73;;;4.80;99.90;;;;;;4956679;29;20635;-86
2023/02/01 04:36:46;;;;;;;13.70;2.73;;;4.80;99.90;;;;;;4956684;28;20295;-85
2023/02/01 04:39:12;;;;;;;2.87;1.33;;;4.80;99.90;;;;;;4956446;28;20546;-84
2023/02/01 04:41:37;;;;;;;4.90;0.70;;;4.80;99.90;;;;;;4939221;29;20473;-85
2023/02/01 04:44:03;;;;;;;5.80;2.13;;;4.80;99.90;;;;;;4954907;29;20184;-86
2023/02/01 04:46:29;;;;;;;4.20;1.23;;;4.80;99.90;;;;;;4956251;28;20672;-89
2023/02/01 04:48:54;;;;;;;7.43;1.23;;;4.80;99.90;;;;;;4938645;29;20586;-85
2023/02/01 04:51:19;;;;;;;9.77;1.40;;;4.90;99.90;;;;;;4939969;29;20257;-90
2023/02/01 04:53:45;;;;;;;5.33;0.70;;;4.90;99.90;;;;;;4940505;29;20181;-91
2023/02/01 04:56:11;;;;;;;11.40;0.83;;;4.80;99.90;;;;;;4940283;29;20252;-87
2023/02/01 04:58:36;;;;;;;7.93;1.10;;;4.80;99.90;;;;;;4957350;29;20184;-89
2023/02/01 05:01:04;;;;;;;4.23;0.50;;;4.80;99.90;;;;;;4956132;29;20188;-89
2023/02/01 05:03:30;;;;;;;3.40;0.47;;;4.80;99.90;;;;;;4957115;28;20733;-90
2023/02/01 05:05:56;;;;;;;5.60;0.40;;;4.70;99.90;;;;;;4940048;29;20446;-90
2023/02/01 05:08:25;;;;;;;1.47;0.53;;;4.70;99.90;;;;;;4939681;29;20460;-87
2023/02/01 05:10:50;;;;;;;2.57;0.40;;;4.70;99.90;;;;;;4939934;29;20195;-89
2023/02/01 05:16:04;;;;;;;1.13;0.33;;;4.60;99.90;;;;;;4957121;29;20200;-88
2023/02/01 05:18:29;;;;;;;2.67;0.50;;;4.50;99.90;;;;;;4939481;29;20433;-87
2023/02/01 05:20:55;;;;;;;1.27;0.30;;;4.40;99.90;;;;;;4946354;29;20472;-88
2023/02/01 05:23:20;;;;;;;3.70;0.30;;;4.20;99.90;;;;;;4946943;28;20176;-89
2023/02/01 05:25:49;;;;;;;0.97;0.20;;;4.00;99.90;;;;;;4975900;28;20191;-89
2023/02/01 05:28:15;;;;;;;1.20;0.60;;;3.90;99.90;;;;;;4958486;28;20307;-90
2023/02/01 05:30:40;;;;;;;0.50;0.20;;;3.90;99.90;;;;;;4974742;28;20447;-89
2023/02/01 05:33:05;;;;;;;1.37;0.40;;;3.80;99.90;;;;;;4974735;28;20267;-92
2023/02/01 05:35:31;;;;;;;3.90;0.43;;;3.90;99.90;;;;;;4975462;28;20200;-89
2023/02/01 05:37:59;;;;;;;1.53;0.20;;;3.60;99.90;;;;;;4958423;28;20231;-88
2023/02/01 05:40:34;;;;;;;2.13;0.80;;;3.50;99.90;;;;;;4974668;28;20172;-89
2023/02/01 05:43:02;;;;;;;1.77;0.20;;;3.50;99.90;;;;;;4916399;28;20779;-88
2023/02/01 05:45:27;;;;;;;0.30;0.20;;;3.50;99.90;;;;;;4954725;29;20428;-86
2023/02/01 05:47:53;;;;;;;1.23;0.20;;;3.50;99.90;;;;;;4954812;29;20425;-89
2023/02/01 05:50:18;;;;;;;2.00;0.20;;;3.50;99.90;;;;;;4954967;29;20178;-91
2023/02/01 05:52:44;;;;;;;0.50;0.30;;;3.40;99.90;;;;;;4956226;29;20226;-89
2023/02/01 05:55:09;;;;;;;1.23;0.50;;;3.40;99.90;;;;;;4956001;29;20232;-86
2023/02/01 05:57:35;;;;;;;2.00;0.27;;;3.40;99.90;;;;;;4938781;29;20550;-87
2023/02/01 06:00:00;;;;;;;0.50;0.20;;;3.30;99.90;;;;;;4955314;28;20260;-81
2023/02/01 06:02:26;;;;;;;0.60;0.20;;;3.30;99.90;;;;;;4974276;28;20183;-82
2023/02/01 06:04:51;;;;;;;1.83;0.27;;;3.20;99.90;;;;;;4974622;28;20169;-82
2023/02/01 06:07:20;;;;;;;0.97;0.20;;;3.20;99.90;;;;;;4973207;28;20668;-88
2023/02/01 06:09:45;;;;;;;5.10;0.37;;;3.10;99.90;;;;;;4974388;28;20615;-86
2023/02/01 06:12:10;;;;;;;1.07;0.57;;;3.10;99.90;;;;;;4959247;28;20483;-87
2023/02/01 06:14:36;;;;;;;1.00;0.30;;;3.10;99.90;;;;;;4954472;29;20169;-85
2023/02/01 06:17:03;;;;;;;2.40;0.27;;;3.20;99.90;;;;;;4954715;29;20239;-86
2023/02/01 06:19:28;;;;;;;0.90;0.20;;;3.20;99.90;;;;;;4938527;29;20425;-90
2023/02/01 06:21:54;;;;;;;2.27;0.33;;;3.20;99.90;;;;;;4956151;29;20166;-89
2023/02/01 06:24:19;;;;;;;0.70;0.30;;;3.20;99.90;;;;;;4939072;29;20170;-89
2023/02/01 06:26:45;;;;;;;1.90;0.50;;;3.20;99.90;;;;;;4955843;28;20188;-83
2023/02/01 06:29:11;;;;;;;1.47;0.40;;;3.30;99.90;;;;;;4955276;29;20605;-85
2023/02/01 06:31:36;;;;;;;5.50;0.43;;;3.30;99.90;;;;;;4956260;29;20202;-85
2023/02/01 06:34:04;;;;;;;3.23;1.40;;;3.40;99.90;;;;;;4954544;29;20204;-89
2023/02/01 06:36:30;;;;;;;1.70;0.20;;;3.40;99.90;;;;;;4955498;29;20205;-90
2023/02/01 06:38:56;;;;;;;3.73;0.43;;;3.50;99.90;;;;;;4954433;29;20485;-87
2023/02/01 06:41:22;;;;;;;1.67;0.40;;;3.50;99.90;;;;;;4955704;29;20657;-89
2023/02/01 06:43:48;;;;;;;1.47;0.27;;;3.60;99.90;;;;;;4955335;29;20418;-91
2023/02/01 06:46:14;;;;;;;2.00;0.43;;;3.60;99.90;;;;;;4923557;28;20444;-80
2023/02/01 06:48:40;;;;;;;2.20;0.40;;;3.70;99.90;;;;;;4949307;29;20201;-88
2023/02/01 06:51:20;;;;;;;1.97;0.97;;;3.80;99.90;;;;;;4955360;29;20421;-87
2023/02/01 06:53:46;;;;;;;2.10;0.50;;;3.80;99.90;;;;;;4955516;29;20414;-89
2023/02/01 06:56:11;;;;;;;8.47;1.60;;;3.90;99.90;;;;;;4955196;29;20473;-87
2023/02/01 06:58:38;;;;;;;7.33;1.67;;;3.90;99.90;;;;;;4955412;29;20702;-88
2023/02/01 07:01:08;;;;;;;3.73;0.63;;;4.00;99.90;;;;;;4954154;29;20577;-88
2023/02/01 07:03:34;;;;;;;3.90;0.70;;;4.00;99.90;;;;;;4954095;29;20524;-89
2023/02/01 07:06:00;;;;;;;6.07;1.60;;;4.10;99.90;;;;;;4955621;29;20444;-90
2023/02/01 07:08:27;;;;;;;6.10;1.10;;;4.10;99.90;;;;;;4956011;29;20667;-89
2023/02/01 07:10:56;;;;;;;15.03;2.00;;;4.20;99.90;;;;;;4956337;28;20480;-90
2023/02/01 07:13:21;;;;;;;9.57;1.53;;;4.20;99.90;;;;;;4957444;29;20837;-87
2023/02/01 07:15:47;;;;;;;7.73;1.67;;;4.30;99.90;;;;;;4958868;29;20456;-81
2023/02/01 07:18:14;;;;;;;8.40;1.50;;;4.30;99.90;;;;;;4958976;29;20219;-81
2023/02/01 07:20:39;;;;;;;16.60;3.00;;;4.30;99.90;;;;;;4957817;29;20176;-81
2023/02/01 07:23:05;;;;;;;5.13;0.37;;;4.30;99.90;;;;;;4957830;29;20421;-81
2023/02/01 07:25:31;;;;;;;8.97;1.43;;;4.40;99.90;;;;;;4957929;29;20176;-90
2023/02/01 07:27:57;;;;;;;5.10;0.37;;;4.30;99.90;;;;;;4958617;29;20669;-91
2023/02/01 07:30:23;;;;;;;7.00;1.27;;;4.30;99.90;;;;;;4958707;29;20173;-90
2023/02/01 07:32:48;;;;;;;6.13;1.37;;;4.40;99.90;;;;;;4958751;29;20416;-90
2023/02/01 07:35:14;;;;;;;8.77;0.60;;;4.30;99.90;;;;;;4958768;29;20178;-88
2023/02/01 07:37:40;;;;;;;5.80;1.37;;;4.30;99.90;;;;;;4958474;29;20217;-89
2023/02/01 07:40:06;;;;;;;13.70;1.60;;;4.40;99.90;;;;;;4957522;29;20173;-88
2023/02/01 07:42:32;;;;;;;8.93;1.53;;;4.50;99.90;;;;;;4956966;29;20435;-90
2023/02/01 07:44:57;;;;;;;9.00;1.13;;;4.50;99.90;;;;;;4957688;29;20782;-90
2023/02/01 07:47:23;;;;;;;5.33;1.63;;;4.60;99.90;;;;;;4962658;29;20205;-90
2023/02/01 07:49:48;;;;;;;13.40;1.60;;;4.60;99.90;;;;;;4962836;29;20331;-89
2023/02/01 07:52:20;;;;;;;8.37;1.77;;;4.60;99.90;;;;;;4963786;29;20173;-91
2023/02/01 07:54:45;;;;;;;7.97;1.10;;;4.70;99.90;;;;;;4963370;29;20169;-91
2023/02/01 07:57:11;;;;;;;12.70;1.47;;;4.70;99.90;;;;;;4960329;29;20468;-88
2023/02/01 08:01:19;;;;;;;11.80;1.30;;;4.80;99.90;;;;;;4959802;29;20176;-87
2023/02/01 08:02:22;;;;;;;13.37;2.57;;;4.80;99.90;;;;;;4959742;28;20993;-89
2023/02/01 08:04:51;;;;;;;12.43;2.03;;;4.90;99.90;;;;;;4957604;28;20424;-88
2023/02/01 08:07:16;;;;;;;12.13;2.27;;;5.00;99.90;;;;;;4940685;29;20264;-88
2023/02/01 08:09:42;;;;;;;15.50;2.43;;;5.10;99.90;;;;;;4957516;28;20452;-88
2023/02/01 08:12:07;;;;;;;15.93;2.20;;;5.10;99.90;;;;;;4940626;29;20185;-88
2023/02/01 08:14:33;;;;;;;13.70;2.80;;;5.20;99.90;;;;;;4957066;29;20547;-88
2023/02/01 08:16:58;;;;;;;10.80;1.43;;;5.20;99.90;;;;;;4941768;29;20220;-88
2023/02/01 08:19:27;;;;;;;15.70;2.23;;;5.30;99.90;;;;;;4959245;28;20252;-85
2023/02/01 08:21:52;;;;;;;17.57;2.63;;;5.30;99.90;;;;;;5015132;23;20242;-86
2023/02/01 08:24:18;;;;;;;6.80;1.90;;;5.30;99.90;;;;;;4940146;28;20989;-83
2023/02/01 08:26:43;;;;;;;25.73;3.13;;;5.40;99.90;;;;;;4971986;28;20175;-88
2023/02/01 08:29:11;;;;;;;14.27;2.40;;;5.50;99.90;;;;;;4977231;28;20230;-86
2023/02/01 08:31:40;;;;;;;14.50;2.10;;;5.60;99.90;;;;;;4977015;28;20226;-86
2023/02/01 08:34:08;;;;;;;22.80;1.90;;;5.80;99.90;;;;;;4997504;28;20493;-89
2023/02/01 08:36:33;;;;;;;14.80;2.67;;;5.90;99.90;;;;;;4976832;28;20647;-89
2023/02/01 08:38:59;;;;;;;10.77;2.03;;;5.90;99.90;;;;;;4991533;28;21042;-84
2023/02/01 08:41:28;;;;;;;17.77;3.33;;;6.00;99.90;;;;;;4977533;28;20177;-89
2023/02/01 08:43:55;;;;;;;11.63;2.37;;;6.50;99.90;;;;;;4976853;28;20252;-83
2023/02/01 08:46:22;;;;;;;13.50;1.43;;;6.60;99.90;;;;;;4976662;28;20417;-87
2023/02/01 08:48:51;;;;;;;8.53;1.00;;;7.00;99.90;;;;;;4975668;28;20453;-87
2023/02/01 08:51:19;;;;;;;20.13;2.87;;;6.80;99.90;;;;;;4975839;28;20420;-86
2023/02/01 08:53:44;;;;;;;9.43;1.23;;;6.40;99.90;;;;;;4976382;28;20424;-88
2023/02/01 08:56:12;;;;;;;11.60;1.43;;;6.20;99.90;;;;;;4990521;28;20458;-85
2023/02/01 08:58:38;;;;;;;20.10;1.97;;;6.30;99.90;;;;;;4990524;28;20673;-83
2023/02/01 09:01:14;;;;;;;17.50;2.93;;;6.30;99.90;;;;;;4975639;28;20437;-86
2023/02/01 09:03:39;;;;;;;10.00;1.43;;;6.90;99.90;;;;;;4975855;28;20180;-87
2023/02/01 09:06:13;;;;;;;9.93;1.20;;;7.20;99.90;;;;;;4990798;28;20410;-86
2023/02/01 09:08:40;;;;;;;10.70;1.67;;;7.50;99.90;;;;;;4991170;28;20200;-85
2023/02/01 09:11:09;;;;;;;17.47;2.00;;;7.70;73.30;;;;;;4975731;28;20419;-84
2023/02/01 09:13:35;;;;;;;11.27;1.73;;;8.20;1.00;;;;;;4975329;28;20410;-82
2023/02/01 09:16:01;;;;;;;13.30;1.23;;;7.60;9.50;;;;;;4976970;28;20949;-87
2023/02/01 09:18:26;;;;;;;9.83;1.90;;;7.70;84.60;;;;;;4974510;28;20191;-85
2023/02/01 09:20:52;;;;;;;18.73;1.87;;;7.40;99.90;;;;;;4974184;28;20618;-85
2023/02/01 09:23:20;;;;;;;12.37;1.70;;;7.00;99.90;;;;;;4975387;28;20221;-84
2023/02/01 09:25:45;;;;;;;10.20;1.93;;;6.80;99.90;;;;;;4975440;28;20172;-87
2023/02/01 09:28:11;;;;;;;9.70;0.90;;;9.30;99.90;;;;;;4975173;28;20840;-86
2023/02/01 09:30:39;;;;;;;11.50;2.60;;;9.20;99.90;;;;;;4976047;28;20635;-88
2023/02/01 09:33:05;;;;;;;9.07;2.00;;;7.80;1.00;;;;;;4977801;28;20173;-86
2023/02/01 09:35:31;;;;;;;9.33;1.80;;;7.40;99.50;;;;;;4981035;28;20903;-88
2023/02/01 09:37:56;;;;;;;8.83;1.37;;;6.90;99.90;;;;;;4979773;28;20239;-87
2023/02/01 09:40:22;;;;;;;9.60;1.43;;;6.60;99.90;;;;;;4996726;28;20183;-89
2023/02/01 09:43:25;;;;;;;9.57;1.50;;;6.30;99.90;;;;;;4981617;28;20177;-89
2023/02/01 09:46:34;;;;;;;12.03;1.47;;;6.10;99.90;;;;;;4983967;28;20420;-87
2023/02/01 09:49:12;;;;;;;9.27;1.43;;;6.20;99.90;;;;;;4974685;28;20421;-83
2023/02/01 09:51:44;;;;;;;8.57;1.13;;;6.20;99.90;;;;;;4979968;28;20414;-83
2023/02/01 09:54:16;;;;;;;14.90;3.10;;;6.50;99.90;;;;;;4980099;28;20492;-81
2023/02/01 09:56:57;;;;;;;14.90;1.70;;;7.00;99.90;;;;;;4977566;28;20466;-85
2023/02/01 09:59:43;;;;;;;12.60;1.20;;;6.70;99.90;;;;;;4995386;28;20428;-87
2023/02/01 10:02:15;;;;;;;12.83;1.97;;;7.20;99.90;;;;;;4978099;28;20507;-83
2023/02/01 10:04:41;;;;;;;16.00;2.00;;;8.20;1.00;;;;;;4976776;28;20472;-80
2023/02/01 10:07:34;;;;;;;15.77;1.40;;;7.90;6.40;;;;;;4956633;28;20524;-80
2023/02/01 10:10:15;;;;;;;13.00;1.27;;;8.40;1.00;;;;;;4974873;28;20172;-85
2023/02/01 10:13:28;;;;;;;5.23;0.90;;;8.50;1.00;;;;;;4974478;28;20416;-85
2023/02/01 10:15:59;;;;;;;11.93;1.33;;;8.30;1.00;;;;;;4968942;28;20435;-83
2023/02/01 10:18:48;;;;;;;7.50;1.37;;;8.10;1.00;;;;;;4973691;28;20429;-83
2023/02/01 10:21:41;;;;;;;13.37;3.00;;;7.90;1.00;;;;;;4981834;28;20458;-85
2023/02/01 10:24:43;;;;;;;6.70;1.10;;;7.60;1.00;;;;;;4993921;28;20406;-84
2023/02/01 10:27:14;;;;;;;12.13;1.97;;;7.40;99.90;;;;;;4992447;28;20422;-84
2023/02/01 10:29:42;;;;;;;13.23;1.37;;;7.40;99.90;;;;;;4993794;28;20417;-84
2023/02/01 10:32:16;;;;;;;7.07;1.80;;;7.40;99.90;;;;;;4993712;28;20430;-84
2023/02/01 10:34:45;;;;;;;12.57;1.07;;;7.40;99.90;;;;;;4993670;28;20418;-85
2023/02/01 10:37:26;;;;;;;8.07;1.67;;;7.20;99.90;;;;;;4993458;28;20474;-83
2023/02/01 10:40:00;;;;;;;6.33;1.20;;;7.10;99.90;;;;;;4993499;28;20413;-84
2023/02/01 10:42:28;;;;;;;5.77;0.73;;;6.80;99.90;;;;;;4993664;28;20405;-83
2023/02/01 10:44:57;;;;;;;14.50;1.87;;;6.70;99.90;;;;;;4981849;28;20499;-87
2023/02/01 10:47:23;;;;;;;9.60;1.97;;;6.60;99.90;;;;;;4976285;28;20421;-85
2023/02/01 10:49:58;;;;;;;6.47;1.33;;;6.60;99.90;;;;;;4976812;28;20512;-83
2023/02/01 10:52:31;;;;;;;10.03;3.47;;;6.50;99.90;;;;;;4977412;28;20506;-82
2023/02/01 10:55:25;;;;;;;14.33;1.53;;;6.30;99.90;;;;;;4975344;28;20425;-81
2023/02/01 10:58:03;;;;;;;7.73;1.10;;;6.30;99.90;;;;;;4976189;28;20470;-84
2023/02/01 11:00:45;;;;;;;9.90;1.37;;;6.30;99.90;;;;;;4976596;28;20423;-84
2023/02/01 11:03:27;;;;;;;5.87;1.20;;;6.30;99.90;;;;;;4971638;28;20434;-83
2023/02/01 11:05:55;;;;;;;8.20;1.80;;;6.40;99.90;;;;;;4975203;28;20444;-84
2023/02/01 11:08:20;;;;;;;5.83;1.67;;;6.40;99.90;;;;;;4976475;28;20776;-83
2023/02/01 11:10:46;;;;;;;10.00;1.33;;;6.30;99.90;;;;;;4958814;28;20415;-82
2023/02/01 11:13:18;;;;;;;13.90;2.50;;;6.20;99.90;;;;;;4976878;28;20230;-81
2023/02/01 11:15:45;;;;;;;6.47;1.50;;;6.20;99.90;;;;;;4976755;28;20168;-82
2023/02/01 11:18:24;;;;;;;7.73;0.60;;;6.20;99.90;;;;;;4974879;28;20436;-83
2023/02/01 11:20:51;;;;;;;6.20;1.67;;;6.30;99.90;;;;;;4976082;28;20854;-85
2023/02/01 11:23:21;;;;;;;7.03;0.40;;;6.20;99.90;;;;;;4975412;28;20848;-86
2023/02/01 11:25:55;;;;;;;9.57;1.00;;;6.20;99.90;;;;;;4976814;28;20415;-85
2023/02/01 11:28:25;;;;;;;14.97;1.40;;;6.30;99.90;;;;;;4975429;28;20432;-85
2023/02/01 11:30:53;;;;;;;6.70;0.93;;;6.40;99.90;;;;;;4976493;28;20748;-85
2023/02/01 11:33:20;;;;;;;7.40;0.80;;;6.40;99.90;;;;;;4976576;28;20520;-86
2023/02/01 11:35:47;;;;;;;11.90;1.33;;;6.30;99.90;;;;;;4977417;28;20416;-87
2023/02/01 11:38:30;;;;;;;7.10;1.40;;;6.30;99.90;;;;;;4976384;28;20519;-84
2023/02/01 11:41:20;;;;;;;6.27;0.90;;;6.30;99.90;;;;;;4977610;28;20927;-90
2023/02/01 11:43:51;;;;;;;14.20;1.90;;;6.40;99.90;;;;;;4976130;28;20519;-89
2023/02/01 11:46:24;;;;;;;9.03;1.40;;;6.40;99.90;;;;;;4977000;28;20954;-90
2023/02/01 11:48:51;;;;;;;11.63;2.13;;;6.40;99.90;;;;;;4977033;28;20436;-87
2023/02/01 11:51:34;;;;;;;4.60;0.63;;;6.50;99.90;;;;;;4976989;28;20445;-84
2023/02/01 11:54:30;;;;;;;12.93;0.50;;;6.50;99.90;;;;;;4970362;28;20563;-83
2023/02/01 11:57:25;;;;;;;12.77;1.70;;;6.40;99.90;;;;;;4973550;28;20473;-87
2023/02/01 12:00:04;;;;;;;9.63;0.83;;;6.50;99.90;;;;;;4951957;28;20425;-93
2023/02/01 12:02:48;;;;;;;5.60;1.73;;;6.50;99.90;;;;;;4989026;28;20430;-93
2023/02/01 12:05:52;;;;;;;5.90;0.90;;;6.50;99.90;;;;;;4989168;28;20418;-89
2023/02/01 12:08:35;;;;;;;5.97;1.07;;;6.50;99.90;;;;;;4946390;28;20521;-89
2023/02/01 12:11:24;;;;;;;3.70;0.63;;;6.40;99.90;;;;;;4982631;28;20518;-85
2023/02/01 12:14:23;;;;;;;5.27;0.60;;;6.20;99.90;;;;;;4997562;28;20435;-86
2023/02/01 12:17:15;;;;;;;3.50;0.40;;;6.10;99.90;;;;;;4997430;28;20477;-87
2023/02/01 12:20:15;;;;;;;5.13;0.90;;;6.00;99.90;;;;;;4982607;28;20416;-88
2023/02/01 12:22:59;;;;;;;4.10;0.70;;;5.90;99.90;;;;;;4996581;28;20480;-82
2023/02/01 12:25:46;;;;;;;1.80;0.37;;;5.80;99.90;;;;;;4998400;28;21691;-86
2023/02/01 12:28:28;;;;;;;3.40;0.50;;;5.80;99.90;;;;;;4997713;28;21030;-83
2023/02/01 12:31:09;;;;;;;6.50;0.77;;;5.80;99.90;;;;;;4996493;28;20424;-84
2023/02/01 12:34:16;;;;;;;3.07;0.47;;;5.80;99.90;;;;;;4995686;28;20554;-87
2023/02/01 12:37:04;;;;;;;7.07;0.93;;;5.80;99.90;;;;;;4997978;28;20461;-86
2023/02/01 12:39:29;;;;;;;7.30;0.97;;;5.80;99.90;;;;;;4971869;28;20449;-84
2023/02/01 12:41:58;;;;;;;5.13;1.17;;;5.80;99.90;;;;;;4976399;28;20445;-89
2023/02/01 12:44:51;;;;;;;6.67;0.87;;;5.70;99.90;;;;;;4977460;28;20195;-80
2023/02/01 12:47:39;;;;;;;4.43;0.37;;;5.70;99.90;;;;;;4973293;28;20448;-80
2023/02/01 12:50:16;;;;;;;3.53;0.30;;;5.50;99.90;;;;;;4975565;28;20441;-82
2023/02/01 12:52:45;;;;;;;1.00;0.30;;;5.40;99.90;;;;;;4951233;28;20447;-81
2023/02/01 12:55:36;;;;;;;0.30;0.20;;;5.30;99.90;;;;;;4973356;28;20467;-81
2023/02/01 12:58:21;;;;;;;1.53;0.20;;;5.30;99.90;;;;;;4976219;28;20504;-84
2023/02/01 13:00:57;;;;;;;1.93;0.20;;;5.10;99.90;;;;;;4974537;28;20450;-80
2023/02/01 13:03:49;;;;;;;2.50;0.23;;;5.10;99.90;;;;;;4969720;28;20446;-83
2023/02/01 13:06:28;;;;;;;0.40;0.20;;;5.00;99.90;;;;;;4974003;28;20451;-84
2023/02/01 13:09:24;;;;;;;0.70;0.50;;;5.00;99.90;;;;;;4911846;28;21264;-83
2023/02/01 13:11:53;;;;;;;1.37;0.20;;;4.90;99.90;;;;;;4975455;28;20539;-83
2023/02/01 13:14:30;;;;;;;0.30;0.20;;;4.80;99.90;;;;;;4975538;28;20438;-81
2023/02/01 13:17:05;;;;;;;0.30;0.20;;;4.70;99.90;;;;;;4975230;28;20475;-82
2023/02/01 13:19:50;;;;;;;0.50;0.20;;;4.70;99.90;;;;;;4976823;28;20440;-80
2023/02/01 13:22:29;;;;;;;0.93;0.30;;;4.70;99.90;;;;;;4966669;28;20492;-81
2023/02/01 13:25:07;;;;;;;0.90;0.20;;;4.70;99.90;;;;;;4958812;28;20986;-83
2023/02/01 13:27:33;;;;;;;2.53;0.67;;;4.70;99.90;;;;;;4978915;28;20883;-81
2023/02/01 13:30:01;;;;;;;0.50;0.20;;;4.80;99.90;;;;;;4977589;28;20472;-86
2023/02/01 13:33:03;;;;;;;0.37;0.20;;;4.80;99.90;;;;;;4976856;28;20179;-89
2023/02/01 13:35:50;;;;;;;0.93;0.20;;;5.00;99.90;;;;;;4974787;28;20428;-85
2023/02/01 13:39:02;;;;;;;0.43;0.20;;;5.30;99.90;;;;;;4973441;28;20548;-82